Terminal Aerodrome Forecast
Issued by NWS

Current Version | Previous Version | Text Only | Print | Product List | Glossary Off
Versions: 1 2 3 4 5 6 7 8 9 10 11 12 13 14 15 16 17 18 19 20 21 22 23

000
FTUS41 KPBZ 300814 AAA
TAFHLG
TAF AMD
KHLG 300814Z 3008/3106 19006KT P6SM VCTS BKN050CB
      TEMPO 3008/3010 3SM -SHRA BR BKN040
     FM301900 25008KT P6SM VCSH BKN050
     FM310300 VRB03KT P6SM BKN050=

USA.gov is the U.S. government's official web portal to all federal, state and local government web resources and services.